sensor_id;sensor_type;location;lat;lon;timestamp;pressure;altitude;pressure_sealevel;temperature;humidity
51439;BME280;38816;51.142;-0.974;2023-04-01T00:02:00;98454.84;;;8.48;100.00
51439;BME280;38816;51.142;-0.974;2023-04-01T00:04:25;98457.41;;;8.48;100.00
51439;BME280;38816;51.142;-0.974;2023-04-01T00:06:50;98446.34;;;8.38;100.00
51439;BME280;38816;51.142;-0.974;2023-04-01T00:09:17;98448.84;;;8.50;100.00
51439;BME280;38816;51.142;-0.974;2023-04-01T00:11:42;98459.94;;;8.51;100.00
51439;BME280;38816;51.142;-0.974;2023-04-01T00:14:07;98459.94;;;8.52;100.00
51439;BME280;38816;51.142;-0.974;2023-04-01T00:16:33;98469.34;;;8.52;100.00
51439;BME280;38816;51.142;-0.974;2023-04-01T00:18:59;98464.25;;;8.43;100.00
51439;BME280;38816;51.142;-0.974;2023-04-01T00:21:25;98469.38;;;8.47;100.00
51439;BME280;38816;51.142;-0.974;2023-04-01T00:23:50;98473.63;;;8.47;100.00
51439;BME280;38816;51.142;-0.974;2023-04-01T00:26:17;98470.22;;;8.35;100.00
51439;BME280;38816;51.142;-0.974;2023-04-01T00:28:44;98482.19;;;8.33;100.00
51439;BME280;38816;51.142;-0.974;2023-04-01T00:31:10;98483.84;;;8.53;100.00
51439;BME280;38816;51.142;-0.974;2023-04-01T00:33:37;98482.16;;;8.44;100.00
51439;BME280;38816;51.142;-0.974;2023-04-01T00:36:10;98478.75;;;8.41;100.00
51439;BME280;38816;51.142;-0.974;2023-04-01T00:38:36;98493.25;;;8.49;100.00
51439;BME280;38816;51.142;-0.974;2023-04-01T00:41:03;98493.22;;;8.57;100.00
51439;BME280;38816;51.142;-0.974;2023-04-01T00:43:29;98496.63;;;8.57;100.00
51439;BME280;38816;51.142;-0.974;2023-04-01T00:45:55;98489.88;;;8.38;100.00
51439;BME280;38816;51.142;-0.974;2023-04-01T00:48:28;98501.81;;;8.39;100.00
51439;BME280;38816;51.142;-0.974;2023-04-01T00:51:11;98500.94;;;8.37;100.00
51439;BME280;38816;51.142;-0.974;2023-04-01T00:53:42;98493.28;;;8.25;100.00
51439;BME280;38816;51.142;-0.974;2023-04-01T00:56:30;98512.91;;;8.44;100.00
51439;BME280;38816;51.142;-0.974;2023-04-01T00:59:21;98514.59;;;8.34;100.00
51439;BME280;38816;51.142;-0.974;2023-04-01T01:01:48;98503.53;;;8.29;100.00
51439;BME280;38816;51.142;-0.974;2023-04-01T01:04:28;98513.75;;;8.42;100.00
51439;BME280;38816;51.142;-0.974;2023-04-01T01:06:56;98519.72;;;8.36;100.00
51439;BME280;38816;51.142;-0.974;2023-04-01T01:10:17;98503.53;;;8.23;100.00
51439;BME280;38816;51.142;-0.974;2023-04-01T01:12:49;98520.56;;;8.35;100.00
51439;BME280;38816;51.142;-0.974;2023-04-01T01:23:55;98526.53;;;8.35;100.00
51439;BME280;38816;51.142;-0.974;2023-04-01T01:26:50;98509.47;;;8.24;100.00
51439;BME280;38816;51.142;-0.974;2023-04-01T01:36:52;98528.28;;;8.29;100.00
51439;BME280;38816;51.142;-0.974;2023-04-01T01:39:19;98538.53;;;8.24;100.00
51439;BME280;38816;51.142;-0.974;2023-04-01T01:41:46;98520.59;;;8.18;100.00
51439;BME280;38816;51.142;-0.974;2023-04-01T01:44:15;98537.66;;;8.27;100.00
51439;BME280;38816;51.142;-0.974;2023-04-01T01:46:42;98533.41;;;8.21;100.00
51439;BME280;38816;51.142;-0.974;2023-04-01T01:49:11;98532.56;;;8.21;100.00
51439;BME280;38816;51.142;-0.974;2023-04-01T01:51:37;98548.75;;;8.27;100.00
51439;BME280;38816;51.142;-0.974;2023-04-01T01:54:04;98546.19;;;8.29;100.00
51439;BME280;38816;51.142;-0.974;2023-04-01T01:56:30;98526.59;;;8.16;100.00
51439;BME280;38816;51.142;-0.974;2023-04-01T01:59:03;98525.72;;;8.18;100.00
51439;BME280;38816;51.142;-0.974;2023-04-01T02:01:32;98550.44;;;8.22;100.00
51439;BME280;38816;51.142;-0.974;2023-04-01T02:04:01;98548.75;;;8.24;100.00
51439;BME280;38816;51.142;-0.974;2023-04-01T02:06:30;98562.41;;;8.29;100.00
51439;BME280;38816;51.142;-0.974;2023-04-01T02:09:01;98547.03;;;8.23;100.00
51439;BME280;38816;51.142;-0.974;2023-04-01T02:11:36;98558.16;;;8.39;100.00
51439;BME280;38816;51.142;-0.974;2023-04-01T02:14:13;98573.50;;;8.34;100.00
51439;BME280;38816;51.142;-0.974;2023-04-01T02:16:49;98566.66;;;8.30;100.00
51439;BME280;38816;51.142;-0.974;2023-04-01T02:19:18;98569.22;;;8.30;100.00
51439;BME280;38816;51.142;-0.974;2023-04-01T02:21:50;98557.28;;;8.23;100.00
51439;BME280;38816;51.142;-0.974;2023-04-01T02:24:17;98553.00;;;8.19;100.00
51439;BME280;38816;51.142;-0.974;2023-04-01T02:26:44;98566.66;;;8.35;100.00
51439;BME280;38816;51.142;-0.974;2023-04-01T02:29:11;98582.03;;;8.40;100.00
51439;BME280;38816;51.142;-0.974;2023-04-01T02:31:37;98570.94;;;8.30;100.00
51439;BME280;38816;51.142;-0.974;2023-04-01T02:34:03;98567.53;;;8.29;100.00
51439;BME280;38816;51.142;-0.974;2023-04-01T02:36:29;98576.03;;;8.31;100.00
51439;BME280;38816;51.142;-0.974;2023-04-01T02:38:56;98567.50;;;8.23;100.00
51439;BME280;38816;51.142;-0.974;2023-04-01T02:41:27;98568.38;;;8.22;100.00
51439;BME280;38816;51.142;-0.974;2023-04-01T02:43:53;98573.50;;;8.25;100.00
51439;BME280;38816;51.142;-0.974;2023-04-01T02:46:18;98587.97;;;8.35;100.00
51439;BME280;38816;51.142;-0.974;2023-04-01T02:48:43;98572.63;;;8.23;100.00
51439;BME280;38816;51.142;-0.974;2023-04-01T02:51:09;98577.75;;;8.26;100.00
51439;BME280;38816;51.142;-0.974;2023-04-01T02:53:34;98584.59;;;8.23;100.00
51439;BME280;38816;51.142;-0.974;2023-04-01T02:56:00;98587.13;;;8.30;100.00
51439;BME280;38816;51.142;-0.974;2023-04-01T02:58:25;98582.03;;;8.29;100.00
51439;BME280;38816;51.142;-0.974;2023-04-01T03:00:50;98576.91;;;8.18;100.00
51439;BME280;38816;51.142;-0.974;2023-04-01T03:03:16;98583.75;;;8.21;100.00
51439;BME280;38816;51.142;-0.974;2023-04-01T03:05:41;98591.41;;;8.27;100.00
51439;BME280;38816;51.142;-0.974;2023-04-01T03:08:07;98576.94;;;8.15;100.00
51439;BME280;38816;51.142;-0.974;2023-04-01T03:10:32;98588.84;;;8.19;100.00
51439;BME280;38816;51.142;-0.974;2023-04-01T03:12:58;98594.84;;;8.21;100.00
51439;BME280;38816;51.142;-0.974;2023-04-01T03:15:23;98587.16;;;8.17;100.00
51439;BME280;38816;51.142;-0.974;2023-04-01T03:17:48;98599.09;;;8.18;100.00
51439;BME280;38816;51.142;-0.974;2023-04-01T03:20:14;98597.38;;;8.21;100.00
51439;BME280;38816;51.142;-0.974;2023-04-01T03:22:40;98599.94;;;8.21;100.00
51439;BME280;38816;51.142;-0.974;2023-04-01T03:25:06;98600.81;;;8.22;100.00
51439;BME280;38816;51.142;-0.974;2023-04-01T03:27:33;98591.41;;;8.19;100.00
51439;BME280;38816;51.142;-0.974;2023-04-01T03:29:59;98610.19;;;8.21;100.00
51439;BME280;38816;51.142;-0.974;2023-04-01T03:32:24;98601.66;;;8.21;100.00
51439;BME280;38816;51.142;-0.974;2023-04-01T03:34:49;98608.47;;;8.17;100.00
51439;BME280;38816;51.142;-0.974;2023-04-01T03:37:15;98594.81;;;8.18;100.00
51439;BME280;38816;51.142;-0.974;2023-04-01T03:39:40;98604.22;;;8.22;100.00
51439;BME280;38816;51.142;-0.974;2023-04-01T03:42:06;98606.78;;;8.21;100.00
51439;BME280;38816;51.142;-0.974;2023-04-01T03:44:32;98598.25;;;8.17;100.00
51439;BME280;38816;51.142;-0.974;2023-04-01T03:46:58;98608.47;;;8.19;100.00
51439;BME280;38816;51.142;-0.974;2023-04-01T03:49:23;98608.47;;;8.17;100.00
51439;BME280;38816;51.142;-0.974;2023-04-01T03:51:49;98600.81;;;8.12;100.00
51439;BME280;38816;51.142;-0.974;2023-04-01T03:54:14;98601.66;;;8.11;100.00
51439;BME280;38816;51.142;-0.974;2023-04-01T03:56:40;98611.91;;;8.16;100.00
51439;BME280;38816;51.142;-0.974;2023-04-01T03:59:07;98607.63;;;8.12;100.00
51439;BME280;38816;51.142;-0.974;2023-04-01T04:01:38;98619.56;;;8.10;100.00
51439;BME280;38816;51.142;-0.974;2023-04-01T04:04:04;98608.47;;;8.03;100.00
51439;BME280;38816;51.142;-0.974;2023-04-01T04:06:30;98624.69;;;8.10;100.00
51439;BME280;38816;51.142;-0.974;2023-04-01T04:08:56;98616.16;;;8.05;100.00
51439;BME280;38816;51.142;-0.974;2023-04-01T04:11:22;98628.97;;;8.11;100.00
51439;BME280;38816;51.142;-0.974;2023-04-01T04:13:47;98618.72;;;8.08;100.00
51439;BME280;38816;51.142;-0.974;2023-04-01T04:16:14;98632.38;;;8.07;100.00
51439;BME280;38816;51.142;-0.974;2023-04-01T04:18:40;98621.28;;;7.97;100.00
51439;BME280;38816;51.142;-0.974;2023-04-01T04:21:05;98605.06;;;7.91;100.00
51439;BME280;38816;51.142;-0.974;2023-04-01T04:23:31;98632.38;;;7.98;100.00
51439;BME280;38816;51.142;-0.974;2023-04-01T04:26:05;98643.47;;;8.07;100.00
51439;BME280;38816;51.142;-0.974;2023-04-01T04:28:31;98651.13;;;8.04;100.00
51439;BME280;38816;51.142;-0.974;2023-04-01T04:30:57;98640.03;;;7.99;100.00
51439;BME280;38816;51.142;-0.974;2023-04-01T04:33:23;98643.47;;;8.07;100.00
51439;BME280;38816;51.142;-0.974;2023-04-01T04:35:50;98651.97;;;8.03;100.00
51439;BME280;38816;51.142;-0.974;2023-04-01T04:38:16;98644.28;;;7.90;100.00
51439;BME280;38816;51.142;-0.974;2023-04-01T04:40:42;98634.03;;;7.86;100.00
51439;BME280;38816;51.142;-0.974;2023-04-01T04:43:10;98633.19;;;7.86;100.00
51439;BME280;38816;51.142;-0.974;2023-04-01T04:45:36;98646.84;;;7.85;100.00
51439;BME280;38816;51.142;-0.974;2023-04-01T04:48:01;98663.06;;;8.04;100.00
51439;BME280;38816;51.142;-0.974;2023-04-01T04:50:27;98657.94;;;7.90;100.00
51439;BME280;38816;51.142;-0.974;2023-04-01T04:52:52;98664.78;;;8.02;100.00
51439;BME280;38816;51.142;-0.974;2023-04-01T04:55:18;98657.09;;;7.90;100.00
51439;BME280;38816;51.142;-0.974;2023-04-01T04:57:43;98656.22;;;7.86;100.00
51439;BME280;38816;51.142;-0.974;2023-04-01T05:00:09;98673.31;;;8.07;100.00
51439;BME280;38816;51.142;-0.974;2023-04-01T05:02:37;98668.16;;;7.90;100.00
51439;BME280;38816;51.142;-0.974;2023-04-01T05:05:03;98680.13;;;7.90;100.00
51439;BME280;38816;51.142;-0.974;2023-04-01T05:07:29;98685.25;;;7.93;100.00
51439;BME280;38816;51.142;-0.974;2023-04-01T05:09:55;98671.56;;;7.81;100.00
51439;BME280;38816;51.142;-0.974;2023-04-01T05:12:20;98688.66;;;7.89;100.00
51439;BME280;38816;51.142;-0.974;2023-04-01T05:14:45;98691.22;;;7.93;100.00
51439;BME280;38816;51.142;-0.974;2023-04-01T05:17:11;98689.50;;;7.97;100.00
51439;BME280;38816;51.142;-0.974;2023-04-01T05:19:37;98700.59;;;8.00;100.00
51439;BME280;38816;51.142;-0.974;2023-04-01T05:22:04;98702.28;;;8.01;100.00
51439;BME280;38816;51.142;-0.974;2023-04-01T05:24:30;98684.38;;;8.00;100.00
51439;BME280;38816;51.142;-0.974;2023-04-01T05:26:55;98692.91;;;7.96;100.00
51439;BME280;38816;51.142;-0.974;2023-04-01T05:29:22;98696.31;;;7.93;100.00
51439;BME280;38816;51.142;-0.974;2023-04-01T05:31:48;98712.53;;;8.06;100.00
51439;BME280;38816;51.142;-0.974;2023-04-01T05:34:13;98713.38;;;8.00;100.00
51439;BME280;38816;51.142;-0.974;2023-04-01T05:36:39;98718.53;;;8.03;100.00
51439;BME280;38816;51.142;-0.974;2023-04-01T05:39:05;98731.31;;;8.08;100.00
51439;BME280;38816;51.142;-0.974;2023-04-01T05:41:30;98730.47;;;8.03;100.00
51439;BME280;38816;51.142;-0.974;2023-04-01T05:43:55;98722.72;;;7.87;100.00
51439;BME280;38816;51.142;-0.974;2023-04-01T05:46:21;98725.28;;;7.86;100.00
51439;BME280;38816;51.142;-0.974;2023-04-01T05:48:46;98746.63;;;7.90;100.00
51439;BME280;38816;51.142;-0.974;2023-04-01T05:51:13;98744.06;;;7.83;100.00
51439;BME280;38816;51.142;-0.974;2023-04-01T05:53:39;98742.34;;;7.81;100.00
51439;BME280;38816;51.142;-0.974;2023-04-01T05:56:05;98746.63;;;7.83;100.00
51439;BME280;38816;51.142;-0.974;2023-04-01T05:58:30;98733.81;;;7.76;100.00
51439;BME280;38816;51.142;-0.974;2023-04-01T06:01:04;98754.28;;;7.82;100.00
51439;BME280;38816;51.142;-0.974;2023-04-01T06:03:29;98750.03;;;7.79;100.00
51439;BME280;38816;51.142;-0.974;2023-04-01T06:05:55;98742.31;;;7.73;100.00
51439;BME280;38816;51.142;-0.974;2023-04-01T06:08:20;98745.72;;;7.74;100.00
51439;BME280;38816;51.142;-0.974;2023-04-01T06:13:50;98762.78;;;7.82;100.00
51439;BME280;38816;51.142;-0.974;2023-04-01T06:27:12;98772.19;;;7.80;100.00
51439;BME280;38816;51.142;-0.974;2023-04-01T06:29:46;98782.41;;;7.82;100.00
51439;BME280;38816;51.142;-0.974;2023-04-01T06:43:18;98790.09;;;7.82;100.00
51439;BME280;38816;51.142;-0.974;2023-04-01T06:53:45;98793.56;;;7.95;100.00
51439;BME280;38816;51.142;-0.974;2023-04-01T06:56:17;98785.00;;;7.90;100.00
51439;BME280;38816;51.142;-0.974;2023-04-01T06:58:51;98793.50;;;7.87;100.00
51439;BME280;38816;51.142;-0.974;2023-04-01T07:01:35;98805.50;;;7.97;100.00
51439;BME280;38816;51.142;-0.974;2023-04-01T07:04:17;98802.94;;;7.99;100.00
51439;BME280;38816;51.142;-0.974;2023-04-01T07:07:05;98798.66;;;7.96;100.00
51439;BME280;38816;51.142;-0.974;2023-04-01T07:09:40;98799.50;;;7.97;100.00
51439;BME280;38816;51.142;-0.974;2023-04-01T07:12:36;98820.06;;;8.12;100.00
51439;BME280;38816;51.142;-0.974;2023-04-01T07:15:17;98821.75;;;8.15;100.00
51439;BME280;38816;51.142;-0.974;2023-04-01T07:17:45;98825.19;;;8.18;100.00
51439;BME280;38816;51.142;-0.974;2023-04-01T07:20:23;98830.31;;;8.18;100.00
51439;BME280;38816;51.142;-0.974;2023-04-01T07:22:54;98836.25;;;8.14;100.00
51439;BME280;38816;51.142;-0.974;2023-04-01T07:25:24;98840.56;;;8.15;100.00
51439;BME280;38816;51.142;-0.974;2023-04-01T07:27:53;98826.03;;;8.06;100.00
51439;BME280;38816;51.142;-0.974;2023-04-01T07:30:23;98839.66;;;8.08;100.00
51439;BME280;38816;51.142;-0.974;2023-04-01T07:36:08;98833.75;;;8.20;100.00
51439;BME280;38816;51.142;-0.974;2023-04-01T07:41:32;98853.44;;;8.36;100.00
51439;BME280;38816;51.142;-0.974;2023-04-01T07:47:01;98866.25;;;8.40;100.00
51439;BME280;38816;51.142;-0.974;2023-04-01T07:52:04;98868.88;;;8.52;100.00
51439;BME280;38816;51.142;-0.974;2023-04-01T07:54:44;98850.88;;;8.41;100.00
51439;BME280;38816;51.142;-0.974;2023-04-01T07:57:18;98875.69;;;8.63;100.00
51439;BME280;38816;51.142;-0.974;2023-04-01T08:05:28;98891.09;;;8.73;100.00
51439;BME280;38816;51.142;-0.974;2023-04-01T08:08:09;98884.28;;;8.76;100.00
51439;BME280;38816;51.142;-0.974;2023-04-01T08:13:41;98895.34;;;8.66;100.00
51439;BME280;38816;51.142;-0.974;2023-04-01T08:21:50;98895.34;;;8.57;100.00
51439;BME280;38816;51.142;-0.974;2023-04-01T08:26:57;98901.34;;;8.73;100.00
51439;BME280;38816;51.142;-0.974;2023-04-01T08:32:14;98918.47;;;8.89;100.00
51439;BME280;38816;51.142;-0.974;2023-04-01T08:34:44;98919.28;;;8.80;100.00
51439;BME280;38816;51.142;-0.974;2023-04-01T08:37:17;98921.88;;;8.79;100.00
51439;BME280;38816;51.142;-0.974;2023-04-01T08:39:48;98927.81;;;8.76;100.00
51439;BME280;38816;51.142;-0.974;2023-04-01T08:48:45;98938.13;;;8.92;100.00
51439;BME280;38816;51.142;-0.974;2023-04-01T08:56:41;98952.66;;;9.08;100.00
51439;BME280;38816;51.142;-0.974;2023-04-01T09:12:38;98955.19;;;8.96;100.00
51439;BME280;38816;51.142;-0.974;2023-04-01T09:15:20;98959.47;;;9.00;100.00
51439;BME280;38816;51.142;-0.974;2023-04-01T09:18:15;98972.31;;;9.12;100.00
51439;BME280;38816;51.142;-0.974;2023-04-01T09:30:06;98973.16;;;9.09;100.00
51439;BME280;38816;51.142;-0.974;2023-04-01T09:37:54;98976.53;;;8.90;100.00
51439;BME280;38816;51.142;-0.974;2023-04-01T09:54:00;98998.00;;;9.38;100.00
51439;BME280;38816;51.142;-0.974;2023-04-01T09:59:47;99010.81;;;9.29;100.00
51439;BME280;38816;51.142;-0.974;2023-04-01T10:14:09;99030.53;;;9.47;100.00
51439;BME280;38816;51.142;-0.974;2023-04-01T10:19:30;99046.75;;;9.39;100.00
51439;BME280;38816;51.142;-0.974;2023-04-01T10:22:41;99050.16;;;9.28;100.00
51439;BME280;38816;51.142;-0.974;2023-04-01T10:27:49;99062.91;;;9.11;100.00
51439;BME280;38816;51.142;-0.974;2023-04-01T10:33:14;99063.69;;;8.93;100.00
51439;BME280;38816;51.142;-0.974;2023-04-01T10:39:10;99076.47;;;8.79;100.00
51439;BME280;38816;51.142;-0.974;2023-04-01T10:41:53;99073.00;;;8.71;100.00
51439;BME280;38816;51.142;-0.974;2023-04-01T10:49:46;99083.34;;;8.93;100.00
51439;BME280;38816;51.142;-0.974;2023-04-01T10:52:47;99091.19;;;9.29;100.00
51439;BME280;38816;51.142;-0.974;2023-04-01T11:45:55;99156.31;;;10.17;100.00
51439;BME280;38816;51.142;-0.974;2023-04-01T11:48:36;99152.09;;;10.28;100.00
51439;BME280;38816;51.142;-0.974;2023-04-01T11:51:29;99163.22;;;10.52;100.00
51439;BME280;38816;51.142;-0.974;2023-04-01T11:54:13;99169.22;;;10.35;100.00
51439;BME280;38816;51.142;-0.974;2023-04-01T12:05:10;99199.06;;;9.84;100.00
51439;BME280;38816;51.142;-0.974;2023-04-01T12:08:06;99198.22;;;9.73;100.00
51439;BME280;38816;51.142;-0.974;2023-04-01T12:10:57;99199.00;;;9.61;100.00
51439;BME280;38816;51.142;-0.974;2023-04-01T12:18:55;99210.00;;;9.28;100.00
51439;BME280;38816;51.142;-0.974;2023-04-01T12:21:37;99208.16;;;9.06;100.00
51439;BME280;38816;51.142;-0.974;2023-04-01T12:26:43;99226.13;;;9.06;100.00
51439;BME280;38816;51.142;-0.974;2023-04-01T12:32:04;99229.44;;;8.96;100.00
51439;BME280;38816;51.142;-0.974;2023-04-01T12:42:59;99243.41;;;9.42;100.00
51439;BME280;38816;51.142;-0.974;2023-04-01T12:53:47;99259.88;;;9.96;100.00
51439;BME280;38816;51.142;-0.974;2023-04-01T12:57:25;99259.88;;;10.02;100.00
51439;BME280;38816;51.142;-0.974;2023-04-01T13:02:03;99270.09;;;9.82;100.00
51439;BME280;38816;51.142;-0.974;2023-04-01T13:10:10;99287.91;;;9.53;100.00
51439;BME280;38816;51.142;-0.974;2023-04-01T13:15:40;99278.47;;;9.48;100.00
51439;BME280;38816;51.142;-0.974;2023-04-01T13:23:33;99304.16;;;9.51;100.00
51439;BME280;38816;51.142;-0.974;2023-04-01T13:34:19;99311.84;;;9.46;100.00
51439;BME280;38816;51.142;-0.974;2023-04-01T13:44:16;99328.94;;;9.49;100.00
51439;BME280;38816;51.142;-0.974;2023-04-01T13:52:16;99346.75;;;9.27;100.00
51439;BME280;38816;51.142;-0.974;2023-04-01T13:55:06;99344.22;;;9.30;100.00
51439;BME280;38816;51.142;-0.974;2023-04-01T14:03:37;99368.31;;;9.54;100.00
51439;BME280;38816;51.142;-0.974;2023-04-01T14:06:11;99370.06;;;9.62;100.00
51439;BME280;38816;51.142;-0.974;2023-04-01T14:09:00;99372.63;;;9.61;100.00
51439;BME280;38816;51.142;-0.974;2023-04-01T14:17:08;99367.63;;;9.85;100.00
51439;BME280;38816;51.142;-0.974;2023-04-01T14:40:14;99393.38;;;9.98;100.00
51439;BME280;38816;51.142;-0.974;2023-04-01T14:42:55;99407.97;;;10.06;100.00
51439;BME280;38816;51.142;-0.974;2023-04-01T14:45:40;99412.16;;;9.90;100.00
51439;BME280;38816;51.142;-0.974;2023-04-01T14:48:32;99412.03;;;9.72;100.00
51439;BME280;38816;51.142;-0.974;2023-04-01T14:57:15;99427.56;;;9.87;100.00
51439;BME280;38816;51.142;-0.974;2023-04-01T15:08:11;99442.25;;;10.14;100.00
51439;BME280;38816;51.142;-0.974;2023-04-01T15:10:51;99453.38;;;10.09;100.00
51439;BME280;38816;51.142;-0.974;2023-04-01T15:19:08;99471.38;;;10.18;100.00
51439;BME280;38816;51.142;-0.974;2023-04-01T15:24:16;99474.03;;;10.29;100.00
51439;BME280;38816;51.142;-0.974;2023-04-01T15:27:15;99478.38;;;10.36;100.00
51439;BME280;38816;51.142;-0.974;2023-04-01T15:38:05;99486.97;;;10.47;100.00
51439;BME280;38816;51.142;-0.974;2023-04-01T15:41:14;99490.41;;;10.46;100.00
51439;BME280;38816;51.142;-0.974;2023-04-01T15:43:46;99487.81;;;10.43;100.00
51439;BME280;38816;51.142;-0.974;2023-04-01T15:58:04;99522.66;;;10.07;100.00
51439;BME280;38816;51.142;-0.974;2023-04-01T16:02:49;99522.47;;;9.80;100.00
51439;BME280;38816;51.142;-0.974;2023-04-01T16:05:47;99521.56;;;9.73;100.00
51439;BME280;38816;51.142;-0.974;2023-04-01T16:14:20;99529.41;;;9.93;100.00
51439;BME280;38816;51.142;-0.974;2023-04-01T16:20:02;99556.72;;;9.83;100.00
51439;BME280;38816;51.142;-0.974;2023-04-01T16:25:44;99556.66;;;9.74;100.00
51439;BME280;38816;51.142;-0.974;2023-04-01T16:34:01;99568.44;;;9.54;100.00
51439;BME280;38816;51.142;-0.974;2023-04-01T16:47:32;99601.00;;;9.61;100.00
51439;BME280;38816;51.142;-0.974;2023-04-01T16:50:20;99603.63;;;9.64;100.00
51439;BME280;38816;51.142;-0.974;2023-04-01T16:58:10;99603.44;;;9.49;100.00
51439;BME280;38816;51.142;-0.974;2023-04-01T17:00:47;99617.16;;;9.51;100.00
51439;BME280;38816;51.142;-0.974;2023-04-01T17:03:26;99623.91;;;9.43;100.00
51439;BME280;38816;51.142;-0.974;2023-04-01T17:11:19;99637.00;;;8.96;100.00
51439;BME280;38816;51.142;-0.974;2023-04-01T17:22:15;99658.59;;;9.11;100.00
51439;BME280;38816;51.142;-0.974;2023-04-01T17:27:41;99672.25;;;9.12;100.00
51439;BME280;38816;51.142;-0.974;2023-04-01T17:30:17;99680.75;;;9.09;100.00
51439;BME280;38816;51.142;-0.974;2023-04-01T17:33:12;99664.50;;;9.06;100.00
51439;BME280;38816;51.142;-0.974;2023-04-01T17:41:36;99684.16;;;9.05;100.00
51439;BME280;38816;51.142;-0.974;2023-04-01T17:47:24;99716.72;;;9.12;100.00
51439;BME280;38816;51.142;-0.974;2023-04-01T17:55:37;99736.19;;;9.00;100.00
51439;BME280;38816;51.142;-0.974;2023-04-01T17:58:20;99743.88;;;8.98;100.00
51439;BME280;38816;51.142;-0.974;2023-04-01T18:03:57;99747.94;;;8.85;100.00
51439;BME280;38816;51.142;-0.974;2023-04-01T18:14:45;99758.81;;;8.71;100.00
51439;BME280;38816;51.142;-0.974;2023-04-01T18:17:27;99762.16;;;8.65;100.00
51439;BME280;38816;51.142;-0.974;2023-04-01T18:22:48;99779.22;;;8.65;100.00
51439;BME280;38816;51.142;-0.974;2023-04-01T18:28:18;99795.31;;;8.56;100.00
51439;BME280;38816;51.142;-0.974;2023-04-01T18:39:12;99811.97;;;8.35;100.00
51439;BME280;38816;51.142;-0.974;2023-04-01T18:42:12;99822.31;;;8.39;100.00
51439;BME280;38816;51.142;-0.974;2023-04-01T18:47:35;99825.63;;;8.36;100.00
51439;BME280;38816;51.142;-0.974;2023-04-01T18:50:27;99835.97;;;8.39;100.00
51439;BME280;38816;51.142;-0.974;2023-04-01T18:55:46;99838.25;;;8.27;100.00
51439;BME280;38816;51.142;-0.974;2023-04-01T18:58:36;99855.59;;;8.39;100.00
51439;BME280;38816;51.142;-0.974;2023-04-01T19:03:43;99865.56;;;8.25;100.00
51439;BME280;38816;51.142;-0.974;2023-04-01T19:11:54;99868.69;;;8.11;100.00
51439;BME280;38816;51.142;-0.974;2023-04-01T19:15:03;99881.34;;;8.05;100.00
51439;BME280;38816;51.142;-0.974;2023-04-01T19:17:47;99876.88;;;7.95;100.00
51439;BME280;38816;51.142;-0.974;2023-04-01T19:20:45;99888.72;;;7.90;100.00
51439;BME280;38816;51.142;-0.974;2023-04-01T19:25:58;99894.31;;;7.72;100.00
51439;BME280;38816;51.142;-0.974;2023-04-01T19:31:37;99915.44;;;7.65;100.00
51439;BME280;38816;51.142;-0.974;2023-04-01T19:36:50;99912.13;;;7.31;100.00
51439;BME280;38816;51.142;-0.974;2023-04-01T19:42:46;99927.88;;;7.14;100.00
51439;BME280;38816;51.142;-0.974;2023-04-01T19:45:57;99932.22;;;7.16;100.00
51439;BME280;38816;51.142;-0.974;2023-04-01T19:48:41;99940.53;;;7.09;100.00
51439;BME280;38816;51.142;-0.974;2023-04-01T19:51:13;99943.94;;;7.08;100.00
51439;BME280;38816;51.142;-0.974;2023-04-01T19:53:52;99951.63;;;7.09;100.00
51439;BME280;38816;51.142;-0.974;2023-04-01T19:56:23;99945.56;;;7.06;100.00
51439;BME280;38816;51.142;-0.974;2023-04-01T19:59:02;99953.16;;;7.03;100.00
51439;BME280;38816;51.142;-0.974;2023-04-01T20:01:57;99956.25;;;6.91;100.00
51439;BME280;38816;51.142;-0.974;2023-04-01T20:04:41;99971.47;;;6.87;100.00
51439;BME280;38816;51.142;-0.974;2023-04-01T20:07:40;99977.19;;;6.78;100.00
51439;BME280;38816;51.142;-0.974;2023-04-01T20:10:35;99963.94;;;6.61;100.00
51439;BME280;38816;51.142;-0.974;2023-04-01T20:13:26;99980.38;;;6.71;100.00
51439;BME280;38816;51.142;-0.974;2023-04-01T20:16:03;99980.50;;;6.75;100.00
51439;BME280;38816;51.142;-0.974;2023-04-01T20:23:59;99998.34;;;7.04;100.00
51439;BME280;38816;51.142;-0.974;2023-04-01T20:26:33;99984.84;;;7.09;100.00
51439;BME280;38816;51.142;-0.974;2023-04-01T20:31:59;99999.78;;;7.27;100.00
51439;BME280;38816;51.142;-0.974;2023-04-01T20:42:46;100024.84;;;7.41;100.00
51439;BME280;38816;51.142;-0.974;2023-04-01T20:45:23;100029.19;;;7.43;100.00
51439;BME280;38816;51.142;-0.974;2023-04-01T20:52:57;100047.22;;;7.48;100.00
51439;BME280;38816;51.142;-0.974;2023-04-01T20:58:42;100041.19;;;7.46;100.00
51439;BME280;38816;51.142;-0.974;2023-04-01T21:04:28;100063.56;;;7.54;100.00
51439;BME280;38816;51.142;-0.974;2023-04-01T21:07:12;100062.63;;;7.51;100.00
51439;BME280;38816;51.142;-0.974;2023-04-01T21:09:55;100054.81;;;7.46;100.00
51439;BME280;38816;51.142;-0.974;2023-04-01T21:23:20;100079.25;;;7.67;100.00
51439;BME280;38816;51.142;-0.974;2023-04-01T22:11:30;100155.41;;;7.45;100.00
51439;BME280;38816;51.142;-0.974;2023-04-01T22:14:15;100144.56;;;7.24;100.00
51439;BME280;38816;51.142;-0.974;2023-04-01T22:19:28;100156.78;;;6.75;100.00
51439;BME280;38816;51.142;-0.974;2023-04-01T22:22:12;100167.09;;;6.78;100.00
51439;BME280;38816;51.142;-0.974;2023-04-01T22:35:12;100182.19;;;6.44;100.00
51439;BME280;38816;51.142;-0.974;2023-04-01T22:40:37;100186.72;;;6.52;100.00
51439;BME280;38816;51.142;-0.974;2023-04-01T22:43:12;100189.78;;;6.41;100.00
51439;BME280;38816;51.142;-0.974;2023-04-01T22:48:22;100195.28;;;6.53;100.00
51439;BME280;38816;51.142;-0.974;2023-04-01T22:56:11;100203.09;;;6.57;100.00
51439;BME280;38816;51.142;-0.974;2023-04-01T22:58:49;100205.72;;;6.60;100.00
51439;BME280;38816;51.142;-0.974;2023-04-01T23:01:19;100198.78;;;6.56;100.00
51439;BME280;38816;51.142;-0.974;2023-04-01T23:03:48;100204.84;;;6.60;100.00
51439;BME280;38816;51.142;-0.974;2023-04-01T23:06:24;100208.41;;;6.65;100.00
51439;BME280;38816;51.142;-0.974;2023-04-01T23:09:42;100224.03;;;6.74;100.00
51439;BME280;38816;51.142;-0.974;2023-04-01T23:11:47;100226.69;;;6.77;100.00